sensor_id;sensor_type;location;lat;lon;timestamp;temperature;humidity
24164;DHT22;12319;49.204;8.116;2023-08-08T00:00:35;15.30;85.50
24164;DHT22;12319;49.204;8.116;2023-08-08T00:03:00;15.30;85.70
24164;DHT22;12319;49.204;8.116;2023-08-08T00:05:26;15.30;85.70
24164;DHT22;12319;49.204;8.116;2023-08-08T00:07:51;15.40;85.90
24164;DHT22;12319;49.204;8.116;2023-08-08T00:10:17;15.40;85.80
24164;DHT22;12319;49.204;8.116;2023-08-08T00:12:43;15.50;85.80
24164;DHT22;12319;49.204;8.116;2023-08-08T00:15:08;15.50;85.90
24164;DHT22;12319;49.204;8.116;2023-08-08T00:17:34;15.60;85.80
24164;DHT22;12319;49.204;8.116;2023-08-08T00:20:00;15.60;85.60
24164;DHT22;12319;49.204;8.116;2023-08-08T00:22:25;15.70;85.70
24164;DHT22;12319;49.204;8.116;2023-08-08T00:24:51;15.70;85.70
24164;DHT22;12319;49.204;8.116;2023-08-08T00:27:16;15.80;85.60
24164;DHT22;12319;49.204;8.116;2023-08-08T00:29:42;15.80;85.60
24164;DHT22;12319;49.204;8.116;2023-08-08T00:32:07;15.70;85.40
24164;DHT22;12319;49.204;8.116;2023-08-08T00:34:33;15.70;85.40
24164;DHT22;12319;49.204;8.116;2023-08-08T00:36:58;15.70;85.60
24164;DHT22;12319;49.204;8.116;2023-08-08T00:39:24;15.60;85.50
24164;DHT22;12319;49.204;8.116;2023-08-08T00:41:49;15.60;85.80
24164;DHT22;12319;49.204;8.116;2023-08-08T00:44:15;15.50;85.80
24164;DHT22;12319;49.204;8.116;2023-08-08T00:46:40;15.50;86.00
24164;DHT22;12319;49.204;8.116;2023-08-08T00:49:07;15.50;86.20
24164;DHT22;12319;49.204;8.116;2023-08-08T00:51:32;15.50;86.30
24164;DHT22;12319;49.204;8.116;2023-08-08T00:53:58;15.40;86.20
24164;DHT22;12319;49.204;8.116;2023-08-08T00:56:25;15.40;86.30
24164;DHT22;12319;49.204;8.116;2023-08-08T00:58:51;15.40;86.70
24164;DHT22;12319;49.204;8.116;2023-08-08T01:01:17;15.30;86.70
24164;DHT22;12319;49.204;8.116;2023-08-08T01:03:43;15.30;86.90
24164;DHT22;12319;49.204;8.116;2023-08-08T01:06:16;15.20;87.00
24164;DHT22;12319;49.204;8.116;2023-08-08T01:08:49;15.20;87.10
24164;DHT22;12319;49.204;8.116;2023-08-08T01:11:17;15.10;87.30
24164;DHT22;12319;49.204;8.116;2023-08-08T01:13:43;15.10;87.30
24164;DHT22;12319;49.204;8.116;2023-08-08T01:16:10;15.10;87.40
24164;DHT22;12319;49.204;8.116;2023-08-08T01:18:37;15.00;87.60
24164;DHT22;12319;49.204;8.116;2023-08-08T01:21:03;15.00;87.80
24164;DHT22;12319;49.204;8.116;2023-08-08T01:23:43;14.90;87.80
24164;DHT22;12319;49.204;8.116;2023-08-08T01:26:11;14.90;88.30
24164;DHT22;12319;49.204;8.116;2023-08-08T01:28:38;14.90;88.20
24164;DHT22;12319;49.204;8.116;2023-08-08T01:31:04;14.80;88.30
24164;DHT22;12319;49.204;8.116;2023-08-08T01:33:29;14.80;88.70
24164;DHT22;12319;49.204;8.116;2023-08-08T01:35:59;14.80;88.90
24164;DHT22;12319;49.204;8.116;2023-08-08T01:38:33;14.70;88.90
24164;DHT22;12319;49.204;8.116;2023-08-08T01:40:59;14.70;89.00
24164;DHT22;12319;49.204;8.116;2023-08-08T01:43:26;14.70;89.20
24164;DHT22;12319;49.204;8.116;2023-08-08T01:45:52;14.70;89.40
24164;DHT22;12319;49.204;8.116;2023-08-08T01:48:18;14.60;89.40
24164;DHT22;12319;49.204;8.116;2023-08-08T01:50:43;14.70;89.90
24164;DHT22;12319;49.204;8.116;2023-08-08T01:53:09;14.60;89.80
24164;DHT22;12319;49.204;8.116;2023-08-08T01:55:35;14.60;89.90
24164;DHT22;12319;49.204;8.116;2023-08-08T01:58:00;14.50;89.70
24164;DHT22;12319;49.204;8.116;2023-08-08T02:00:26;14.60;90.10
24164;DHT22;12319;49.204;8.116;2023-08-08T02:02:51;14.50;90.10
24164;DHT22;12319;49.204;8.116;2023-08-08T02:05:17;14.50;90.40
24164;DHT22;12319;49.204;8.116;2023-08-08T02:07:42;14.50;90.30
24164;DHT22;12319;49.204;8.116;2023-08-08T02:10:08;14.40;90.30
24164;DHT22;12319;49.204;8.116;2023-08-08T02:12:34;14.40;90.40
24164;DHT22;12319;49.204;8.116;2023-08-08T02:14:59;14.40;90.50
24164;DHT22;12319;49.204;8.116;2023-08-08T02:17:25;14.30;90.50
24164;DHT22;12319;49.204;8.116;2023-08-08T02:19:52;14.40;90.60
24164;DHT22;12319;49.204;8.116;2023-08-08T02:22:17;14.30;90.60
24164;DHT22;12319;49.204;8.116;2023-08-08T02:24:43;14.30;90.60
24164;DHT22;12319;49.204;8.116;2023-08-08T02:27:09;14.30;90.80
24164;DHT22;12319;49.204;8.116;2023-08-08T02:29:34;14.20;90.70
24164;DHT22;12319;49.204;8.116;2023-08-08T02:32:00;14.30;90.80
24164;DHT22;12319;49.204;8.116;2023-08-08T02:34:25;14.30;90.90
24164;DHT22;12319;49.204;8.116;2023-08-08T02:36:51;14.30;91.00
24164;DHT22;12319;49.204;8.116;2023-08-08T02:39:16;14.30;91.20
24164;DHT22;12319;49.204;8.116;2023-08-08T02:41:42;14.20;91.20
24164;DHT22;12319;49.204;8.116;2023-08-08T02:44:08;14.20;91.20
24164;DHT22;12319;49.204;8.116;2023-08-08T02:46:33;14.20;91.20
24164;DHT22;12319;49.204;8.116;2023-08-08T02:48:59;14.10;91.30
24164;DHT22;12319;49.204;8.116;2023-08-08T02:51:24;14.20;91.40
24164;DHT22;12319;49.204;8.116;2023-08-08T02:53:50;14.20;91.50
24164;DHT22;12319;49.204;8.116;2023-08-08T02:56:15;14.20;91.60
24164;DHT22;12319;49.204;8.116;2023-08-08T02:58:41;14.20;91.60
24164;DHT22;12319;49.204;8.116;2023-08-08T03:01:06;14.10;91.70
24164;DHT22;12319;49.204;8.116;2023-08-08T03:03:32;14.10;91.60
24164;DHT22;12319;49.204;8.116;2023-08-08T03:05:57;14.10;91.70
24164;DHT22;12319;49.204;8.116;2023-08-08T03:08:23;14.10;91.70
24164;DHT22;12319;49.204;8.116;2023-08-08T03:10:49;14.10;91.80
24164;DHT22;12319;49.204;8.116;2023-08-08T03:13:14;14.10;91.90
24164;DHT22;12319;49.204;8.116;2023-08-08T03:15:40;14.10;91.90
24164;DHT22;12319;49.204;8.116;2023-08-08T03:18:06;14.10;91.90
24164;DHT22;12319;49.204;8.116;2023-08-08T03:20:31;14.10;92.00
24164;DHT22;12319;49.204;8.116;2023-08-08T03:22:57;14.00;92.00
24164;DHT22;12319;49.204;8.116;2023-08-08T03:25:22;14.00;92.20
24164;DHT22;12319;49.204;8.116;2023-08-08T03:27:48;14.00;92.20
24164;DHT22;12319;49.204;8.116;2023-08-08T03:30:14;14.00;92.20
24164;DHT22;12319;49.204;8.116;2023-08-08T03:32:40;14.00;92.30
24164;DHT22;12319;49.204;8.116;2023-08-08T03:35:06;13.90;92.30
24164;DHT22;12319;49.204;8.116;2023-08-08T03:37:31;13.90;92.30
24164;DHT22;12319;49.204;8.116;2023-08-08T03:39:57;14.00;92.40
24164;DHT22;12319;49.204;8.116;2023-08-08T03:42:22;13.90;92.40
24164;DHT22;12319;49.204;8.116;2023-08-08T03:44:48;13.90;92.50
24164;DHT22;12319;49.204;8.116;2023-08-08T03:47:13;13.90;92.60
24164;DHT22;12319;49.204;8.116;2023-08-08T03:49:39;13.90;92.70
24164;DHT22;12319;49.204;8.116;2023-08-08T03:52:05;13.80;92.80
24164;DHT22;12319;49.204;8.116;2023-08-08T03:54:30;13.80;92.80
24164;DHT22;12319;49.204;8.116;2023-08-08T03:56:59;13.80;92.80
24164;DHT22;12319;49.204;8.116;2023-08-08T03:59:26;13.80;93.00
24164;DHT22;12319;49.204;8.116;2023-08-08T04:01:52;13.80;93.00
24164;DHT22;12319;49.204;8.116;2023-08-08T04:04:17;13.80;93.00
24164;DHT22;12319;49.204;8.116;2023-08-08T04:06:43;13.70;93.20
24164;DHT22;12319;49.204;8.116;2023-08-08T04:09:08;13.70;93.10
24164;DHT22;12319;49.204;8.116;2023-08-08T04:11:34;13.70;93.10
24164;DHT22;12319;49.204;8.116;2023-08-08T04:14:01;13.70;93.20
24164;DHT22;12319;49.204;8.116;2023-08-08T04:16:28;13.70;93.30
24164;DHT22;12319;49.204;8.116;2023-08-08T04:18:53;13.70;93.30
24164;DHT22;12319;49.204;8.116;2023-08-08T04:21:19;13.70;93.40
24164;DHT22;12319;49.204;8.116;2023-08-08T04:23:44;13.70;93.50
24164;DHT22;12319;49.204;8.116;2023-08-08T04:26:10;13.80;93.60
24164;DHT22;12319;49.204;8.116;2023-08-08T04:28:35;13.80;93.70
24164;DHT22;12319;49.204;8.116;2023-08-08T04:31:01;13.80;93.90
24164;DHT22;12319;49.204;8.116;2023-08-08T04:33:26;13.80;93.70
24164;DHT22;12319;49.204;8.116;2023-08-08T04:35:52;13.90;93.80
24164;DHT22;12319;49.204;8.116;2023-08-08T04:38:17;13.90;93.80
24164;DHT22;12319;49.204;8.116;2023-08-08T04:40:43;13.90;93.90
24164;DHT22;12319;49.204;8.116;2023-08-08T04:43:08;13.90;93.90
24164;DHT22;12319;49.204;8.116;2023-08-08T04:45:34;13.90;93.90
24164;DHT22;12319;49.204;8.116;2023-08-08T04:47:59;14.00;94.00
24164;DHT22;12319;49.204;8.116;2023-08-08T04:50:25;14.00;94.00
24164;DHT22;12319;49.204;8.116;2023-08-08T04:52:50;14.00;94.00
24164;DHT22;12319;49.204;8.116;2023-08-08T04:55:16;14.00;94.10
24164;DHT22;12319;49.204;8.116;2023-08-08T04:57:41;14.10;94.10
24164;DHT22;12319;49.204;8.116;2023-08-08T05:00:07;14.20;94.10
24164;DHT22;12319;49.204;8.116;2023-08-08T05:02:34;14.30;94.10
24164;DHT22;12319;49.204;8.116;2023-08-08T05:05:00;14.30;94.10
24164;DHT22;12319;49.204;8.116;2023-08-08T05:07:26;14.40;94.10
24164;DHT22;12319;49.204;8.116;2023-08-08T05:09:52;14.50;94.10
24164;DHT22;12319;49.204;8.116;2023-08-08T05:12:17;14.60;94.10
24164;DHT22;12319;49.204;8.116;2023-08-08T05:14:43;14.60;94.10
24164;DHT22;12319;49.204;8.116;2023-08-08T05:17:08;14.70;94.10
24164;DHT22;12319;49.204;8.116;2023-08-08T05:19:34;14.80;94.00
24164;DHT22;12319;49.204;8.116;2023-08-08T05:21:59;14.90;93.90
24164;DHT22;12319;49.204;8.116;2023-08-08T05:24:26;15.00;93.70
24164;DHT22;12319;49.204;8.116;2023-08-08T05:26:51;15.00;93.80
24164;DHT22;12319;49.204;8.116;2023-08-08T05:29:18;15.10;93.70
24164;DHT22;12319;49.204;8.116;2023-08-08T05:31:44;15.20;93.70
24164;DHT22;12319;49.204;8.116;2023-08-08T05:34:09;15.30;93.60
24164;DHT22;12319;49.204;8.116;2023-08-08T05:36:35;15.30;93.60
24164;DHT22;12319;49.204;8.116;2023-08-08T05:39:00;15.40;93.50
24164;DHT22;12319;49.204;8.116;2023-08-08T05:41:26;15.50;93.60
24164;DHT22;12319;49.204;8.116;2023-08-08T05:43:51;15.50;93.50
24164;DHT22;12319;49.204;8.116;2023-08-08T05:46:17;15.60;93.40
24164;DHT22;12319;49.204;8.116;2023-08-08T05:48:42;15.70;93.30
24164;DHT22;12319;49.204;8.116;2023-08-08T05:51:08;15.70;93.30
24164;DHT22;12319;49.204;8.116;2023-08-08T05:53:33;15.80;93.20
24164;DHT22;12319;49.204;8.116;2023-08-08T05:55:59;15.90;93.10
24164;DHT22;12319;49.204;8.116;2023-08-08T05:58:24;16.00;93.20
24164;DHT22;12319;49.204;8.116;2023-08-08T06:00:50;16.10;93.20
24164;DHT22;12319;49.204;8.116;2023-08-08T06:03:15;16.20;93.20
24164;DHT22;12319;49.204;8.116;2023-08-08T06:05:41;16.30;93.10
24164;DHT22;12319;49.204;8.116;2023-08-08T06:08:06;16.30;92.90
24164;DHT22;12319;49.204;8.116;2023-08-08T06:10:36;16.40;92.90
24164;DHT22;12319;49.204;8.116;2023-08-08T06:13:02;16.60;92.80
24164;DHT22;12319;49.204;8.116;2023-08-08T06:15:28;16.60;92.60
24164;DHT22;12319;49.204;8.116;2023-08-08T06:17:53;16.80;92.60
24164;DHT22;12319;49.204;8.116;2023-08-08T06:20:19;16.90;92.60
24164;DHT22;12319;49.204;8.116;2023-08-08T06:22:44;17.20;92.60
24164;DHT22;12319;49.204;8.116;2023-08-08T06:25:10;17.40;92.50
24164;DHT22;12319;49.204;8.116;2023-08-08T06:27:36;17.90;93.00
24164;DHT22;12319;49.204;8.116;2023-08-08T06:30:02;19.00;94.00
24164;DHT22;12319;49.204;8.116;2023-08-08T06:32:28;20.90;93.60
24164;DHT22;12319;49.204;8.116;2023-08-08T06:34:54;23.40;92.00
24164;DHT22;12319;49.204;8.116;2023-08-08T06:37:20;25.70;88.30
24164;DHT22;12319;49.204;8.116;2023-08-08T06:39:45;27.70;83.50
24164;DHT22;12319;49.204;8.116;2023-08-08T06:42:11;29.30;76.00
24164;DHT22;12319;49.204;8.116;2023-08-08T06:44:42;30.70;69.60
24164;DHT22;12319;49.204;8.116;2023-08-08T06:47:08;32.10;64.60
24164;DHT22;12319;49.204;8.116;2023-08-08T06:49:33;33.30;63.50
24164;DHT22;12319;49.204;8.116;2023-08-08T06:51:59;34.20;60.20
24164;DHT22;12319;49.204;8.116;2023-08-08T06:54:24;35.00;58.50
24164;DHT22;12319;49.204;8.116;2023-08-08T06:56:50;35.80;56.20
24164;DHT22;12319;49.204;8.116;2023-08-08T06:59:15;36.50;54.00
24164;DHT22;12319;49.204;8.116;2023-08-08T07:01:41;37.00;53.10
24164;DHT22;12319;49.204;8.116;2023-08-08T07:04:06;37.70;51.40
24164;DHT22;12319;49.204;8.116;2023-08-08T07:06:32;38.30;47.80
24164;DHT22;12319;49.204;8.116;2023-08-08T07:08:57;38.90;49.50
24164;DHT22;12319;49.204;8.116;2023-08-08T07:11:24;39.50;47.90
24164;DHT22;12319;49.204;8.116;2023-08-08T07:13:50;39.90;47.00
24164;DHT22;12319;49.204;8.116;2023-08-08T07:16:15;40.30;46.50
24164;DHT22;12319;49.204;8.116;2023-08-08T07:18:41;40.70;45.00
24164;DHT22;12319;49.204;8.116;2023-08-08T07:21:06;41.00;43.40
24164;DHT22;12319;49.204;8.116;2023-08-08T07:23:32;41.30;41.70
24164;DHT22;12319;49.204;8.116;2023-08-08T07:25:57;41.60;42.00
24164;DHT22;12319;49.204;8.116;2023-08-08T07:28:23;41.90;40.60
24164;DHT22;12319;49.204;8.116;2023-08-08T07:30:48;41.90;39.20
24164;DHT22;12319;49.204;8.116;2023-08-08T07:33:14;42.10;38.70
24164;DHT22;12319;49.204;8.116;2023-08-08T07:35:39;42.20;38.20
24164;DHT22;12319;49.204;8.116;2023-08-08T07:38:05;42.20;37.60
24164;DHT22;12319;49.204;8.116;2023-08-08T07:40:31;42.00;31.50
24164;DHT22;12319;49.204;8.116;2023-08-08T07:42:56;41.90;36.00
24164;DHT22;12319;49.204;8.116;2023-08-08T07:45:22;41.50;37.00
24164;DHT22;12319;49.204;8.116;2023-08-08T07:47:47;41.30;34.60
24164;DHT22;12319;49.204;8.116;2023-08-08T07:50:13;40.80;32.80
24164;DHT22;12319;49.204;8.116;2023-08-08T07:52:40;40.40;35.70
24164;DHT22;12319;49.204;8.116;2023-08-08T07:55:06;40.30;35.20
24164;DHT22;12319;49.204;8.116;2023-08-08T07:57:33;40.20;36.20
24164;DHT22;12319;49.204;8.116;2023-08-08T08:00:02;40.00;36.40
24164;DHT22;12319;49.204;8.116;2023-08-08T08:02:39;39.80;35.00
24164;DHT22;12319;49.204;8.116;2023-08-08T08:05:05;39.80;35.70
24164;DHT22;12319;49.204;8.116;2023-08-08T08:07:36;39.90;36.70
24164;DHT22;12319;49.204;8.116;2023-08-08T08:10:02;39.60;36.20
24164;DHT22;12319;49.204;8.116;2023-08-08T08:12:30;39.10;36.00
24164;DHT22;12319;49.204;8.116;2023-08-08T08:14:56;38.70;36.10
24164;DHT22;12319;49.204;8.116;2023-08-08T08:17:22;38.90;35.90
24164;DHT22;12319;49.204;8.116;2023-08-08T08:19:49;39.00;35.90
24164;DHT22;12319;49.204;8.116;2023-08-08T08:22:15;39.00;35.20
24164;DHT22;12319;49.204;8.116;2023-08-08T08:24:40;39.10;35.90
24164;DHT22;12319;49.204;8.116;2023-08-08T08:27:06;39.00;35.40
24164;DHT22;12319;49.204;8.116;2023-08-08T08:29:32;39.00;35.50
24164;DHT22;12319;49.204;8.116;2023-08-08T08:31:58;39.10;35.10
24164;DHT22;12319;49.204;8.116;2023-08-08T08:34:23;39.00;35.20
24164;DHT22;12319;49.204;8.116;2023-08-08T08:36:49;39.00;35.10
24164;DHT22;12319;49.204;8.116;2023-08-08T08:39:15;38.80;34.60
24164;DHT22;12319;49.204;8.116;2023-08-08T08:41:40;38.70;34.20
24164;DHT22;12319;49.204;8.116;2023-08-08T08:44:06;38.30;34.20
24164;DHT22;12319;49.204;8.116;2023-08-08T08:46:32;37.90;34.50
24164;DHT22;12319;49.204;8.116;2023-08-08T08:49:02;37.50;34.60
24164;DHT22;12319;49.204;8.116;2023-08-08T08:51:30;37.20;34.50
24164;DHT22;12319;49.204;8.116;2023-08-08T08:53:57;36.90;34.80
24164;DHT22;12319;49.204;8.116;2023-08-08T08:56:23;36.30;34.70
24164;DHT22;12319;49.204;8.116;2023-08-08T08:58:49;35.30;34.70
24164;DHT22;12319;49.204;8.116;2023-08-08T09:01:15;34.10;35.10
24164;DHT22;12319;49.204;8.116;2023-08-08T09:03:44;32.80;36.20
24164;DHT22;12319;49.204;8.116;2023-08-08T09:06:11;31.60;36.90
24164;DHT22;12319;49.204;8.116;2023-08-08T09:08:37;30.80;38.50
24164;DHT22;12319;49.204;8.116;2023-08-08T09:11:03;30.10;39.30
24164;DHT22;12319;49.204;8.116;2023-08-08T09:13:36;29.50;39.30
24164;DHT22;12319;49.204;8.116;2023-08-08T09:16:05;28.90;39.70
24164;DHT22;12319;49.204;8.116;2023-08-08T09:18:31;28.50;40.60
24164;DHT22;12319;49.204;8.116;2023-08-08T09:20:58;28.20;40.80
24164;DHT22;12319;49.204;8.116;2023-08-08T09:23:23;27.90;40.80
24164;DHT22;12319;49.204;8.116;2023-08-08T09:25:49;27.60;41.10
24164;DHT22;12319;49.204;8.116;2023-08-08T09:28:15;27.20;41.50
24164;DHT22;12319;49.204;8.116;2023-08-08T09:30:42;26.90;41.50
24164;DHT22;12319;49.204;8.116;2023-08-08T09:33:08;26.70;41.90
24164;DHT22;12319;49.204;8.116;2023-08-08T09:35:33;26.60;42.00
24164;DHT22;12319;49.204;8.116;2023-08-08T09:37:59;26.40;42.30
24164;DHT22;12319;49.204;8.116;2023-08-08T09:40:25;26.20;42.40
24164;DHT22;12319;49.204;8.116;2023-08-08T09:42:52;26.20;43.10
24164;DHT22;12319;49.204;8.116;2023-08-08T09:45:18;26.20;44.20
24164;DHT22;12319;49.204;8.116;2023-08-08T09:47:44;26.20;43.60
24164;DHT22;12319;49.204;8.116;2023-08-08T09:50:10;26.30;44.60
24164;DHT22;12319;49.204;8.116;2023-08-08T09:52:36;26.30;43.80
24164;DHT22;12319;49.204;8.116;2023-08-08T09:55:04;26.30;44.00
24164;DHT22;12319;49.204;8.116;2023-08-08T09:57:30;26.40;44.40
24164;DHT22;12319;49.204;8.116;2023-08-08T09:59:57;26.40;44.30
24164;DHT22;12319;49.204;8.116;2023-08-08T10:02:24;26.40;43.70
24164;DHT22;12319;49.204;8.116;2023-08-08T10:04:50;26.30;43.60
24164;DHT22;12319;49.204;8.116;2023-08-08T10:07:16;26.20;43.50
24164;DHT22;12319;49.204;8.116;2023-08-08T10:09:41;26.20;44.00
24164;DHT22;12319;49.204;8.116;2023-08-08T10:12:08;26.20;44.40
24164;DHT22;12319;49.204;8.116;2023-08-08T10:14:37;26.10;44.50
24164;DHT22;12319;49.204;8.116;2023-08-08T10:17:04;26.30;44.40
24164;DHT22;12319;49.204;8.116;2023-08-08T10:19:30;26.30;43.70
24164;DHT22;12319;49.204;8.116;2023-08-08T10:21:58;26.30;44.30
24164;DHT22;12319;49.204;8.116;2023-08-08T10:24:24;26.30;44.70
24164;DHT22;12319;49.204;8.116;2023-08-08T10:26:59;26.50;44.30
24164;DHT22;12319;49.204;8.116;2023-08-08T10:29:29;26.50;44.00
24164;DHT22;12319;49.204;8.116;2023-08-08T10:32:03;26.60;44.00
24164;DHT22;12319;49.204;8.116;2023-08-08T10:34:47;26.70;44.00
24164;DHT22;12319;49.204;8.116;2023-08-08T10:37:15;26.80;44.10
24164;DHT22;12319;49.204;8.116;2023-08-08T10:39:54;26.80;43.70
24164;DHT22;12319;49.204;8.116;2023-08-08T10:42:22;26.80;43.40
24164;DHT22;12319;49.204;8.116;2023-08-08T10:44:54;26.80;43.30
24164;DHT22;12319;49.204;8.116;2023-08-08T10:47:30;26.80;43.40
24164;DHT22;12319;49.204;8.116;2023-08-08T10:50:14;26.70;43.20
24164;DHT22;12319;49.204;8.116;2023-08-08T10:55:30;26.60;43.00
24164;DHT22;12319;49.204;8.116;2023-08-08T10:58:10;26.40;43.20
24164;DHT22;12319;49.204;8.116;2023-08-08T11:00:37;26.30;43.70
24164;DHT22;12319;49.204;8.116;2023-08-08T11:03:06;26.30;44.40
24164;DHT22;12319;49.204;8.116;2023-08-08T11:05:35;26.30;43.70
24164;DHT22;12319;49.204;8.116;2023-08-08T11:08:02;26.20;43.40
24164;DHT22;12319;49.204;8.116;2023-08-08T11:10:29;26.10;43.60
24164;DHT22;12319;49.204;8.116;2023-08-08T11:13:02;26.00;43.90
24164;DHT22;12319;49.204;8.116;2023-08-08T11:15:29;26.00;44.10
24164;DHT22;12319;49.204;8.116;2023-08-08T11:17:56;26.00;44.30
24164;DHT22;12319;49.204;8.116;2023-08-08T11:20:22;26.00;44.50
24164;DHT22;12319;49.204;8.116;2023-08-08T11:22:55;26.00;45.10
24164;DHT22;12319;49.204;8.116;2023-08-08T11:25:22;26.10;45.40
24164;DHT22;12319;49.204;8.116;2023-08-08T11:27:54;26.00;45.20
24164;DHT22;12319;49.204;8.116;2023-08-08T11:30:21;26.00;45.00
24164;DHT22;12319;49.204;8.116;2023-08-08T11:32:47;26.00;45.60
24164;DHT22;12319;49.204;8.116;2023-08-08T11:35:23;26.00;44.30
24164;DHT22;12319;49.204;8.116;2023-08-08T11:37:50;26.10;44.90
24164;DHT22;12319;49.204;8.116;2023-08-08T11:40:17;26.10;44.30
24164;DHT22;12319;49.204;8.116;2023-08-08T11:42:43;26.00;44.10
24164;DHT22;12319;49.204;8.116;2023-08-08T11:45:13;26.00;44.60
24164;DHT22;12319;49.204;8.116;2023-08-08T11:47:39;26.00;45.20
24164;DHT22;12319;49.204;8.116;2023-08-08T11:50:07;26.10;45.10
24164;DHT22;12319;49.204;8.116;2023-08-08T11:52:35;26.10;44.70
24164;DHT22;12319;49.204;8.116;2023-08-08T11:55:01;26.10;44.40
24164;DHT22;12319;49.204;8.116;2023-08-08T11:57:27;26.20;44.60
24164;DHT22;12319;49.204;8.116;2023-08-08T11:59:53;26.20;44.60
24164;DHT22;12319;49.204;8.116;2023-08-08T12:02:19;26.10;44.40
24164;DHT22;12319;49.204;8.116;2023-08-08T12:04:45;26.20;45.20
24164;DHT22;12319;49.204;8.116;2023-08-08T12:07:11;26.30;44.70
24164;DHT22;12319;49.204;8.116;2023-08-08T12:09:37;26.30;44.10
24164;DHT22;12319;49.204;8.116;2023-08-08T12:12:04;26.40;43.80
24164;DHT22;12319;49.204;8.116;2023-08-08T12:14:42;26.40;41.50
24164;DHT22;12319;49.204;8.116;2023-08-08T12:17:09;26.50;42.50
24164;DHT22;12319;49.204;8.116;2023-08-08T12:19:34;26.60;42.80
24164;DHT22;12319;49.204;8.116;2023-08-08T12:22:00;26.60;43.00
24164;DHT22;12319;49.204;8.116;2023-08-08T12:24:25;26.70;43.20
24164;DHT22;12319;49.204;8.116;2023-08-08T12:26:51;26.80;43.00
24164;DHT22;12319;49.204;8.116;2023-08-08T12:29:16;26.80;43.10
24164;DHT22;12319;49.204;8.116;2023-08-08T12:31:42;26.80;43.30
24164;DHT22;12319;49.204;8.116;2023-08-08T12:34:08;26.90;43.50
24164;DHT22;12319;49.204;8.116;2023-08-08T12:36:34;27.10;43.50
24164;DHT22;12319;49.204;8.116;2023-08-08T12:38:59;27.20;43.10
24164;DHT22;12319;49.204;8.116;2023-08-08T12:41:25;27.30;43.00
24164;DHT22;12319;49.204;8.116;2023-08-08T12:43:51;27.40;42.90
24164;DHT22;12319;49.204;8.116;2023-08-08T12:46:17;27.50;42.50
24164;DHT22;12319;49.204;8.116;2023-08-08T12:48:43;27.50;42.80
24164;DHT22;12319;49.204;8.116;2023-08-08T12:51:09;27.70;42.00
24164;DHT22;12319;49.204;8.116;2023-08-08T12:53:35;27.60;42.10
24164;DHT22;12319;49.204;8.116;2023-08-08T12:56:01;27.60;42.00
24164;DHT22;12319;49.204;8.116;2023-08-08T12:58:26;27.80;42.10
24164;DHT22;12319;49.204;8.116;2023-08-08T13:00:52;27.80;42.00
24164;DHT22;12319;49.204;8.116;2023-08-08T13:03:17;27.70;42.00
24164;DHT22;12319;49.204;8.116;2023-08-08T13:05:43;27.60;41.60
24164;DHT22;12319;49.204;8.116;2023-08-08T13:08:08;27.50;42.20
24164;DHT22;12319;49.204;8.116;2023-08-08T13:10:35;27.40;41.90
24164;DHT22;12319;49.204;8.116;2023-08-08T13:13:01;27.50;42.30
24164;DHT22;12319;49.204;8.116;2023-08-08T13:15:26;27.70;42.10
24164;DHT22;12319;49.204;8.116;2023-08-08T13:17:52;27.80;41.90
24164;DHT22;12319;49.204;8.116;2023-08-08T13:20:17;27.90;41.00
24164;DHT22;12319;49.204;8.116;2023-08-08T13:22:43;27.90;41.80
24164;DHT22;12319;49.204;8.116;2023-08-08T13:25:08;28.10;41.90
24164;DHT22;12319;49.204;8.116;2023-08-08T13:27:35;28.20;41.50
24164;DHT22;12319;49.204;8.116;2023-08-08T13:30:01;28.40;41.50
24164;DHT22;12319;49.204;8.116;2023-08-08T13:32:27;28.70;42.20
24164;DHT22;12319;49.204;8.116;2023-08-08T13:34:53;28.70;42.10
24164;DHT22;12319;49.204;8.116;2023-08-08T13:37:19;28.80;41.50
24164;DHT22;12319;49.204;8.116;2023-08-08T13:39:44;28.90;41.60
24164;DHT22;12319;49.204;8.116;2023-08-08T13:42:10;29.00;40.80
24164;DHT22;12319;49.204;8.116;2023-08-08T13:44:36;29.10;41.20
24164;DHT22;12319;49.204;8.116;2023-08-08T13:47:01;29.00;39.90
24164;DHT22;12319;49.204;8.116;2023-08-08T13:49:27;29.00;40.80
24164;DHT22;12319;49.204;8.116;2023-08-08T13:51:54;29.20;41.40
24164;DHT22;12319;49.204;8.116;2023-08-08T13:54:20;29.40;40.60
24164;DHT22;12319;49.204;8.116;2023-08-08T13:56:45;29.40;40.40
24164;DHT22;12319;49.204;8.116;2023-08-08T13:59:11;29.40;40.70
24164;DHT22;12319;49.204;8.116;2023-08-08T14:01:37;29.30;39.50
24164;DHT22;12319;49.204;8.116;2023-08-08T14:04:03;29.20;39.70
24164;DHT22;12319;49.204;8.116;2023-08-08T14:06:28;29.10;40.40
24164;DHT22;12319;49.204;8.116;2023-08-08T14:08:55;29.10;40.80
24164;DHT22;12319;49.204;8.116;2023-08-08T14:11:20;29.10;41.10
24164;DHT22;12319;49.204;8.116;2023-08-08T14:13:46;29.30;41.30
24164;DHT22;12319;49.204;8.116;2023-08-08T14:16:11;29.30;41.30
24164;DHT22;12319;49.204;8.116;2023-08-08T14:18:37;29.50;41.30
24164;DHT22;12319;49.204;8.116;2023-08-08T14:21:03;29.60;41.20
24164;DHT22;12319;49.204;8.116;2023-08-08T14:23:30;29.70;41.00
24164;DHT22;12319;49.204;8.116;2023-08-08T14:25:55;29.80;40.90
24164;DHT22;12319;49.204;8.116;2023-08-08T14:28:21;29.50;39.50
24164;DHT22;12319;49.204;8.116;2023-08-08T14:30:47;29.00;40.80
24164;DHT22;12319;49.204;8.116;2023-08-08T14:33:16;28.60;41.40
24164;DHT22;12319;49.204;8.116;2023-08-08T14:35:42;28.10;41.50
24164;DHT22;12319;49.204;8.116;2023-08-08T14:38:08;27.80;42.40
24164;DHT22;12319;49.204;8.116;2023-08-08T14:40:33;27.40;42.40
24164;DHT22;12319;49.204;8.116;2023-08-08T14:43:03;27.10;43.00
24164;DHT22;12319;49.204;8.116;2023-08-08T14:45:29;26.90;43.70
24164;DHT22;12319;49.204;8.116;2023-08-08T14:47:55;26.70;44.00
24164;DHT22;12319;49.204;8.116;2023-08-08T14:50:20;26.50;43.80
24164;DHT22;12319;49.204;8.116;2023-08-08T14:52:46;26.30;44.10
24164;DHT22;12319;49.204;8.116;2023-08-08T14:55:11;26.20;44.40
24164;DHT22;12319;49.204;8.116;2023-08-08T14:57:37;26.10;44.80
24164;DHT22;12319;49.204;8.116;2023-08-08T15:00:03;26.00;44.80
24164;DHT22;12319;49.204;8.116;2023-08-08T15:02:29;25.90;44.80
24164;DHT22;12319;49.204;8.116;2023-08-08T15:04:55;25.80;45.30
24164;DHT22;12319;49.204;8.116;2023-08-08T15:07:20;25.80;45.30
24164;DHT22;12319;49.204;8.116;2023-08-08T15:09:46;25.90;45.40
24164;DHT22;12319;49.204;8.116;2023-08-08T15:12:14;25.90;45.50
24164;DHT22;12319;49.204;8.116;2023-08-08T15:14:40;25.80;45.60
24164;DHT22;12319;49.204;8.116;2023-08-08T15:17:06;25.80;45.80
24164;DHT22;12319;49.204;8.116;2023-08-08T15:19:31;25.60;45.80
24164;DHT22;12319;49.204;8.116;2023-08-08T15:21:57;25.50;46.80
24164;DHT22;12319;49.204;8.116;2023-08-08T15:24:22;25.50;46.40
24164;DHT22;12319;49.204;8.116;2023-08-08T15:26:48;25.40;46.40